X-preSS Mulhacen — 9HA3465 — position and weather

sailwx.info

Track history (hours):
 
Tides and Currents Weather Stations Pressure Air Temp Water Temp Dewpoint Dewpoint Depression Visibility Wind Speed Wind Dir Waves Ship Positions

X-preSS Mulhacen

Last reported at 2018-Jan-21 22:15 UTC. Time now 2018-Jan-21 22:34 UTC.
Position N 51°49' W 005°55'.

Length 142 m; draft 6.1 m.

Type: Ship (hazmat cat B). MMSI: 229630000.

Date/timePositionNaut miles runAvg speedWind from/ knotsBaromVisibWave heightAir tempDewpointWater temp
2018-Jan-21 22:15N 51°49' W 005°55'310.3
2018-Jan-21 22:00N 51°52' W 005°54'510.0
2018-Jan-21 21:31N 51°57' W 005°53'510.0
2018-Jan-21 20:58N 52°02' W 005°51'5 8.0
2018-Jan-21 20:21N 52°07' W 005°49'3 7.3
2018-Jan-21 19:53N 52°10' W 005°48'3 8.0
2018-Jan-21 19:31N 52°13' W 005°47'5 9.7
2018-Jan-21 19:01N 52°18' W 005°46'611.3
2018-Jan-21 18:30N 52°24' W 005°44'612.2
2018-Jan-21 17:59N 52°30' W 005°42'612.6
2018-Jan-21 17:31N 52°35' W 005°40'8612.0
2018-Jan-21 10:21N 54°00' W 005°18'411.3
2018-Jan-21 10:00N 54°04' W 005°17'611.4
2018-Jan-21 09:30N 54°10' W 005°16'611.5
2018-Jan-21 09:00N 54°16' W 005°15'611.5
2018-Jan-21 08:30N 54°22' W 005°15'611.1
2018-Jan-21 08:00N 54°27' W 005°15'511.0
2018-Jan-21 07:30N 54°32' W 005°16'510.9
2018-Jan-21 07:00N 54°38' W 005°17'510.5
2018-Jan-21 06:30N 54°43' W 005°18'510.4
2018-Jan-21 06:00N 54°48' W 005°19'510.1
2018-Jan-21 05:30N 54°53' W 005°20'5 9.9
2018-Jan-21 05:00N 54°58' W 005°19'510.6
2018-Jan-21 04:30N 55°04' W 005°19'2011.5
2018-Jan-21 02:47N 55°21' W 005°04'1211.7
2018-Jan-21 01:46N 55°33' W 004°59'412.2
2018-Jan-21 01:25N 55°37' W 004°60'511.8
2018-Jan-21 01:00N 55°42' W 004°59'612.6
2018-Jan-21 00:30N 55°48' W 004°58'713.9
2018-Jan-21 00:01N 55°55' W 004°55'5 0.9
2018-Jan-20 18:20N 55°58' W 004°47'411.3
2018-Jan-20 18:00N 55°57' W 004°53'713.8
2018-Jan-20 17:30N 55°50' W 004°57'713.9
2018-Jan-20 17:01N 55°43' W 004°59'4 8.0
2018-Jan-20 16:30N 55°39' W 004°59'4 8.7
2018-Jan-20 16:00N 55°35' W 004°59'28 9.8
2018-Jan-20 13:08N 55°08' W 005°16'311.5
2018-Jan-20 12:51N 55°06' W 005°19'511.5
2018-Jan-20 12:25N 55°01' W 005°19'511.4
2018-Jan-20 11:56N 54°55' W 005°19'510.8
2018-Jan-20 11:31N 54°51' W 005°16'510.6
2018-Jan-20 11:01N 54°46' W 005°13'510.3
2018-Jan-20 10:31N 54°41' W 005°11'510.5
2018-Jan-20 10:01N 54°36' W 005°09'611.1
2018-Jan-20 09:30N 54°30' W 005°07'510.9
2018-Jan-20 09:01N 54°25' W 005°05'611.3
2018-Jan-20 08:30N 54°19' W 005°03'713.2
2018-Jan-20 08:00N 54°13' W 005°01'4813.2
2018-Jan-20 04:24N 53°40' W 004°02'614.6
2018-Jan-20 04:00N 53°37' W 003°53'714.4
2018-Jan-20 03:30N 53°34' W 003°42'714.2
2018-Jan-20 03:00N 53°33' W 003°30'714.1
2018-Jan-20 02:31N 53°33' W 003°19'5 9.8
2018-Jan-20 02:00N 53°32' W 003°11'5 9.4
2018-Jan-20 01:30N 53°29' W 003°04'3 3.7
2018-Jan-20 00:49N 53°27' W 003°01'1 1.4
2018-Jan-20 00:25N 53°28' W 003°02'0 0.4
2018-Jan-19 23:55N 53°28' W 003°02'0 0.0
2018-Jan-19 23:28N 53°28' W 003°02'0 0.0
2018-Jan-19 22:58N 53°28' W 003°02'0 0.0
2018-Jan-19 22:28N 53°28' W 003°02'0 0.0
2018-Jan-19 21:58N 53°28' W 003°02'0 0.0
2018-Jan-19 21:28N 53°28' W 003°02'0 0.0
2018-Jan-19 20:58N 53°28' W 003°02'0 0.0
2018-Jan-19 20:28N 53°28' W 003°02'0 0.0
2018-Jan-19 19:55N 53°28' W 003°02'0 0.0
2018-Jan-19 19:28N 53°28' W 003°02'0 0.0
2018-Jan-19 18:58N 53°28' W 003°02'0 0.0
2018-Jan-19 18:28N 53°28' W 003°02'0 0.0
2018-Jan-19 17:58N 53°28' W 003°02'0 0.0
2018-Jan-19 17:25N 53°28' W 003°02'0 0.0
2018-Jan-19 16:58N 53°28' W 003°02'0 0.0
2018-Jan-19 16:25N 53°28' W 003°02'0 0.0
2018-Jan-19 15:55N 53°28' W 003°02'0 0.0
2018-Jan-19 15:28N 53°28' W 003°02'0 0.0
2018-Jan-19 14:58N 53°28' W 003°02'0 0.0
2018-Jan-19 14:22N 53°28' W 003°02'0 0.0
2018-Jan-19 13:58N 53°28' W 003°02'0 0.0
2018-Jan-19 13:25N 53°28' W 003°02'0 0.0
2018-Jan-19 12:55N 53°28' W 003°02'0 0.0
2018-Jan-19 12:28N 53°28' W 003°02'0 0.0
2018-Jan-19 11:55N 53°28' W 003°02'0 0.0
2018-Jan-19 11:22N 53°28' W 003°02'0 0.0
2018-Jan-19 10:58N 53°28' W 003°02'0 0.0
2018-Jan-19 10:25N 53°28' W 003°02'0 0.0
2018-Jan-19 09:58N 53°28' W 003°02'0 0.0
2018-Jan-19 09:30N 53°28' W 003°02'1 1.0
2018-Jan-19 09:00N 53°27' W 003°01'0 0.6
2018-Jan-19 08:30N 53°27' W 003°01'0 0.3
2018-Jan-19 08:00N 53°27' W 003°01'1 2.1
2018-Jan-19 07:30N 53°27' W 003°03'4 8.5
2018-Jan-19 07:00N 53°31' W 003°07'4 8.7
2018-Jan-19 06:30N 53°31' W 003°14'612.6
2018-Jan-19 06:00N 53°31' W 003°25'612.9
2018-Jan-19 05:30N 53°31' W 003°35'612.6
2018-Jan-19 05:00N 53°31' W 003°46'712.3
2018-Jan-19 04:29N 53°30' W 003°57'812.2
2018-Jan-19 03:48N 53°27' W 004°10'  
Track history (hours):
 
Tides and Currents Weather Stations Pressure Air Temp Water Temp Dewpoint Dewpoint Depression Visibility Wind Speed Wind Dir Waves Ship Positions

X-preSS Mulhacen

Last reported at 2018-Jan-21 22:15 UTC. Time now 2018-Jan-21 22:34 UTC.
Position N 51°49' W 005°55'.

Length 142 m; draft 6.1 m.

Type: Ship (hazmat cat B). MMSI: 229630000.

Date/timePositionNaut miles runAvg speedWind from/ knotsBaromVisibWave heightAir tempDewpointWater temp
2018-Jan-21 22:15N 51°49' W 005°55'310.3
2018-Jan-21 22:00N 51°52' W 005°54'510.0
2018-Jan-21 21:31N 51°57' W 005°53'510.0
2018-Jan-21 20:58N 52°02' W 005°51'5 8.0
2018-Jan-21 20:21N 52°07' W 005°49'3 7.3
2018-Jan-21 19:53N 52°10' W 005°48'3 8.0
2018-Jan-21 19:31N 52°13' W 005°47'5 9.7
2018-Jan-21 19:01N 52°18' W 005°46'611.3
2018-Jan-21 18:30N 52°24' W 005°44'612.2
2018-Jan-21 17:59N 52°30' W 005°42'612.6
2018-Jan-21 17:31N 52°35' W 005°40'8612.0
2018-Jan-21 10:21N 54°00' W 005°18'411.3
2018-Jan-21 10:00N 54°04' W 005°17'611.4
2018-Jan-21 09:30N 54°10' W 005°16'611.5
2018-Jan-21 09:00N 54°16' W 005°15'611.5
2018-Jan-21 08:30N 54°22' W 005°15'611.1
2018-Jan-21 08:00N 54°27' W 005°15'511.0
2018-Jan-21 07:30N 54°32' W 005°16'510.9
2018-Jan-21 07:00N 54°38' W 005°17'510.5
2018-Jan-21 06:30N 54°43' W 005°18'510.4
2018-Jan-21 06:00N 54°48' W 005°19'510.1
2018-Jan-21 05:30N 54°53' W 005°20'5 9.9
2018-Jan-21 05:00N 54°58' W 005°19'510.6
2018-Jan-21 04:30N 55°04' W 005°19'2011.5
2018-Jan-21 02:47N 55°21' W 005°04'1211.7
2018-Jan-21 01:46N 55°33' W 004°59'412.2
2018-Jan-21 01:25N 55°37' W 004°60'511.8
2018-Jan-21 01:00N 55°42' W 004°59'612.6
2018-Jan-21 00:30N 55°48' W 004°58'713.9
2018-Jan-21 00:01N 55°55' W 004°55'5 0.9
2018-Jan-20 18:20N 55°58' W 004°47'411.3
2018-Jan-20 18:00N 55°57' W 004°53'713.8
2018-Jan-20 17:30N 55°50' W 004°57'713.9
2018-Jan-20 17:01N 55°43' W 004°59'4 8.0
2018-Jan-20 16:30N 55°39' W 004°59'4 8.7
2018-Jan-20 16:00N 55°35' W 004°59'28 9.8
2018-Jan-20 13:08N 55°08' W 005°16'311.5
2018-Jan-20 12:51N 55°06' W 005°19'511.5
2018-Jan-20 12:25N 55°01' W 005°19'511.4
2018-Jan-20 11:56N 54°55' W 005°19'510.8
2018-Jan-20 11:31N 54°51' W 005°16'510.6
2018-Jan-20 11:01N 54°46' W 005°13'510.3
2018-Jan-20 10:31N 54°41' W 005°11'510.5
2018-Jan-20 10:01N 54°36' W 005°09'611.1
2018-Jan-20 09:30N 54°30' W 005°07'510.9
2018-Jan-20 09:01N 54°25' W 005°05'611.3
2018-Jan-20 08:30N 54°19' W 005°03'713.2
2018-Jan-20 08:00N 54°13' W 005°01'4813.2
2018-Jan-20 04:24N 53°40' W 004°02'614.6
2018-Jan-20 04:00N 53°37' W 003°53'714.4
2018-Jan-20 03:30N 53°34' W 003°42'714.2
2018-Jan-20 03:00N 53°33' W 003°30'714.1
2018-Jan-20 02:31N 53°33' W 003°19'5 9.8
2018-Jan-20 02:00N 53°32' W 003°11'5 9.4
2018-Jan-20 01:30N 53°29' W 003°04'3 3.7
2018-Jan-20 00:49N 53°27' W 003°01'1 1.4
2018-Jan-20 00:25N 53°28' W 003°02'0 0.4
2018-Jan-19 23:55N 53°28' W 003°02'0 0.0
2018-Jan-19 23:28N 53°28' W 003°02'0 0.0
2018-Jan-19 22:58N 53°28' W 003°02'0 0.0
2018-Jan-19 22:28N 53°28' W 003°02'0 0.0
2018-Jan-19 21:58N 53°28' W 003°02'0 0.0
2018-Jan-19 21:28N 53°28' W 003°02'0 0.0
2018-Jan-19 20:58N 53°28' W 003°02'0 0.0
2018-Jan-19 20:28N 53°28' W 003°02'0 0.0
2018-Jan-19 19:55N 53°28' W 003°02'0 0.0
2018-Jan-19 19:28N 53°28' W 003°02'0 0.0
2018-Jan-19 18:58N 53°28' W 003°02'0 0.0
2018-Jan-19 18:28N 53°28' W 003°02'0 0.0
2018-Jan-19 17:58N 53°28' W 003°02'0 0.0
2018-Jan-19 17:25N 53°28' W 003°02'0 0.0
2018-Jan-19 16:58N 53°28' W 003°02'0 0.0
2018-Jan-19 16:25N 53°28' W 003°02'0 0.0
2018-Jan-19 15:55N 53°28' W 003°02'0 0.0
2018-Jan-19 15:28N 53°28' W 003°02'0 0.0
2018-Jan-19 14:58N 53°28' W 003°02'0 0.0
2018-Jan-19 14:22N 53°28' W 003°02'0 0.0
2018-Jan-19 13:58N 53°28' W 003°02'0 0.0
2018-Jan-19 13:25N 53°28' W 003°02'0 0.0
2018-Jan-19 12:55N 53°28' W 003°02'0 0.0
2018-Jan-19 12:28N 53°28' W 003°02'0 0.0
2018-Jan-19 11:55N 53°28' W 003°02'0 0.0
2018-Jan-19 11:22N 53°28' W 003°02'0 0.0
2018-Jan-19 10:58N 53°28' W 003°02'0 0.0
2018-Jan-19 10:25N 53°28' W 003°02'0 0.0
2018-Jan-19 09:58N 53°28' W 003°02'0 0.0
2018-Jan-19 09:30N 53°28' W 003°02'1 1.0
2018-Jan-19 09:00N 53°27' W 003°01'0 0.6
2018-Jan-19 08:30N 53°27' W 003°01'0 0.3
2018-Jan-19 08:00N 53°27' W 003°01'1 2.1
2018-Jan-19 07:30N 53°27' W 003°03'4 8.5
2018-Jan-19 07:00N 53°31' W 003°07'4 8.7
2018-Jan-19 06:30N 53°31' W 003°14'612.6
2018-Jan-19 06:00N 53°31' W 003°25'612.9
2018-Jan-19 05:30N 53°31' W 003°35'612.6
2018-Jan-19 05:00N 53°31' W 003°46'712.3
2018-Jan-19 04:29N 53°30' W 003°57'812.2
2018-Jan-19 03:48N 53°27' W 004°10'  

Dump ship's entire track history